createdAt,value
2018-01-01T00:01:35.561Z,8.77
2018-01-01T00:04:09.153Z,9.13
2018-01-01T00:06:42.997Z,4.50
2018-01-01T00:09:16.818Z,4.25
2018-01-01T00:11:51.370Z,3.85
2018-01-01T00:14:25.230Z,7.60
2018-01-01T00:17:00.741Z,2.47
2018-01-01T00:19:34.606Z,3.28
2018-01-01T00:22:08.970Z,2.28
2018-01-01T00:24:45.832Z,3.95
2018-01-01T00:27:21.908Z,1.50
2018-01-01T00:29:57.755Z,1.50
2018-01-01T00:32:32.651Z,0.80
2018-01-01T00:35:09.591Z,3.90
2018-01-01T00:37:47.476Z,2.60
2018-01-01T00:40:24.905Z,2.15
2018-01-01T00:43:01.499Z,3.08
2018-01-01T00:45:35.971Z,5.85
2018-01-01T00:48:10.990Z,1.35
2018-01-01T00:50:44.846Z,2.25
2018-01-01T00:53:20.103Z,3.50
2018-01-01T00:55:53.858Z,4.37
2018-01-01T00:58:28.513Z,4.15
2018-01-01T01:01:02.221Z,2.40
2018-01-01T01:03:39.846Z,4.82
2018-01-01T01:06:16.007Z,3.30
2018-01-01T01:08:49.797Z,4.30
2018-01-01T01:11:25.195Z,2.55
2018-01-01T01:13:58.887Z,2.35
2018-01-01T01:16:32.764Z,4.00
2018-01-01T01:19:07.455Z,3.95
2018-01-01T01:21:43.457Z,7.95
2018-01-01T01:24:21.223Z,4.22
2018-01-01T01:26:56.480Z,3.80
2018-01-01T01:29:33.507Z,1.25
2018-01-01T01:32:09.881Z,2.67
2018-01-01T01:34:47.223Z,1.58
2018-01-01T01:37:28.344Z,4.30
2018-01-01T01:40:04.155Z,1.55
2018-01-01T01:42:39.437Z,3.03
2018-01-01T01:45:16.066Z,0.95
2018-01-01T01:47:49.734Z,4.10
2018-01-01T01:50:30.224Z,0.60
2018-01-01T01:53:04.701Z,2.28
2018-01-01T01:55:39.570Z,3.92
2018-01-01T01:58:13.667Z,0.40
2018-01-01T02:00:47.400Z,2.15
2018-01-01T02:03:21.972Z,3.28
2018-01-01T02:05:56.343Z,3.28
2018-01-01T02:08:30.147Z,3.58
2018-01-01T02:11:04.637Z,2.33
2018-01-01T02:13:38.470Z,2.83
2018-01-01T02:16:12.237Z,1.40
2018-01-01T02:18:46.124Z,1.80
2018-01-01T02:24:00.977Z,2.05
2018-01-01T02:26:34.892Z,3.62
2018-01-01T02:29:10.022Z,4.45
2018-01-01T02:31:44.797Z,5.93
2018-01-01T02:34:19.102Z,2.50
2018-01-01T02:36:53.789Z,5.32
2018-01-01T02:39:28.432Z,4.55
2018-01-01T02:42:02.350Z,5.57
2018-01-01T02:44:35.997Z,7.62
2018-01-01T02:47:09.729Z,7.95
2018-01-01T02:49:44.325Z,6.45
2018-01-01T02:52:18.737Z,4.37
2018-01-01T02:54:52.489Z,5.70
2018-01-01T02:57:26.341Z,4.93
2018-01-01T03:00:00.893Z,3.45
2018-01-01T03:02:34.520Z,5.57
2018-01-01T03:05:08.372Z,2.80
2018-01-01T03:07:43.225Z,3.42
2018-01-01T03:10:17.306Z,1.17
2018-01-01T03:12:52.420Z,4.30
2018-01-01T03:15:29.864Z,1.92
2018-01-01T03:18:03.755Z,4.45
2018-01-01T03:20:37.790Z,2.58
2018-01-01T03:23:12.248Z,3.00
2018-01-01T03:25:46.080Z,4.03
2018-01-01T03:28:20.189Z,1.20
2018-01-01T03:30:53.946Z,3.72
2018-01-01T03:33:27.961Z,4.25
2018-01-01T03:36:01.732Z,4.97
2018-01-01T03:38:35.472Z,2.75
2018-01-01T03:41:09.218Z,4.47
2018-01-01T03:43:43.024Z,4.25
2018-01-01T03:46:16.741Z,3.65
2018-01-01T03:48:50.521Z,2.25
2018-01-01T03:51:24.502Z,4.82
2018-01-01T03:53:59.114Z,2.45
2018-01-01T03:56:33.945Z,2.78
2018-01-01T03:59:07.752Z,1.85
2018-01-01T04:01:43.349Z,2.37
2018-01-01T04:04:19.224Z,1.83
2018-01-01T04:06:53.717Z,2.42
2018-01-01T04:09:27.547Z,3.78
2018-01-01T04:12:04.232Z,2.28
2018-01-01T04:14:38.003Z,1.40
2018-01-01T04:17:11.724Z,1.85
2018-01-01T04:19:46.513Z,3.58
2018-01-01T04:22:20.176Z,0.70
2018-01-01T04:24:54.660Z,1.05
2018-01-01T04:27:28.363Z,1.92
2018-01-01T04:30:03.069Z,1.52
2018-01-01T04:32:36.772Z,1.90
2018-01-01T04:35:10.424Z,1.62
2018-01-01T04:37:44.250Z,2.53
2018-01-01T04:40:17.941Z,0.70
2018-01-01T04:42:52.815Z,1.45
2018-01-01T04:45:27.246Z,0.50
2018-01-01T04:48:00.908Z,0.93
2018-01-01T04:50:34.635Z,1.08
2018-01-01T04:53:08.233Z,1.33
2018-01-01T04:55:42.060Z,0.77
2018-01-01T04:58:15.762Z,1.12
2018-01-01T05:00:51.685Z,1.58
2018-01-01T05:03:25.482Z,0.32
2018-01-01T05:05:59.338Z,1.48
2018-01-01T05:08:32.930Z,2.22
2018-01-01T05:11:06.660Z,0.40
2018-01-01T05:13:40.221Z,0.40
2018-01-01T05:16:14.764Z,1.42
2018-01-01T05:18:49.832Z,0.55
2018-01-01T05:21:23.429Z,0.82
2018-01-01T05:23:56.985Z,1.42
2018-01-01T05:26:30.784Z,0.88
2018-01-01T05:29:04.919Z,0.98
2018-01-01T05:31:38.664Z,1.10
2018-01-01T05:34:13.695Z,0.60
2018-01-01T05:36:47.376Z,0.95
2018-01-01T05:39:21.152Z,1.08
2018-01-01T05:41:55.839Z,1.00
2018-01-01T05:44:29.538Z,1.08
2018-01-01T05:47:03.345Z,0.50
2018-01-01T05:49:37.260Z,1.30
2018-01-01T05:52:11.151Z,0.60
2018-01-01T05:54:45.013Z,0.90
2018-01-01T05:57:19.635Z,0.90
2018-01-01T05:59:54.450Z,1.10
2018-01-01T06:02:29.202Z,1.20
2018-01-01T06:05:03.749Z,0.50
2018-01-01T06:07:37.484Z,0.57
2018-01-01T06:10:13.695Z,0.60
2018-01-01T06:12:47.540Z,0.80
2018-01-01T06:15:21.382Z,0.77
2018-01-01T06:17:55.177Z,1.35
2018-01-01T06:20:28.827Z,1.27
2018-01-01T06:23:02.575Z,2.55
2018-01-01T06:25:36.365Z,0.60
2018-01-01T06:28:10.506Z,0.80
2018-01-01T06:30:44.955Z,0.75
2018-01-01T06:33:18.585Z,0.70
2018-01-01T06:35:53.998Z,2.97
2018-01-01T06:38:29.439Z,0.85
2018-01-01T06:41:22.699Z,0.40
2018-01-01T06:43:59.432Z,1.70
2018-01-01T06:46:35.502Z,1.45
2018-01-01T06:49:10.374Z,1.48
2018-01-01T06:51:45.696Z,0.80
2018-01-01T06:54:19.341Z,0.50
2018-01-01T06:56:53.104Z,0.60
2018-01-01T06:59:27.279Z,0.70
2018-01-01T07:02:03.034Z,1.58
2018-01-01T07:04:36.841Z,1.40
2018-01-01T07:07:10.582Z,1.87
2018-01-01T07:09:44.336Z,0.70
2018-01-01T07:12:19.141Z,1.00
2018-01-01T07:14:53.078Z,1.05
2018-01-01T07:17:27.532Z,1.40
2018-01-01T07:20:02.427Z,0.88
2018-01-01T07:22:36.269Z,1.08
2018-01-01T07:25:11.316Z,0.80
2018-01-01T07:27:45.486Z,1.20
2018-01-01T07:30:19.326Z,1.17
2018-01-01T07:32:53.012Z,0.82
2018-01-01T07:35:26.745Z,0.88
2018-01-01T07:38:01.331Z,0.68
2018-01-01T07:40:35.751Z,0.93
2018-01-01T07:43:09.443Z,0.50
2018-01-01T07:45:43.160Z,0.93
2018-01-01T07:48:16.992Z,0.85
2018-01-01T07:50:50.714Z,1.15
2018-01-01T07:53:24.625Z,1.48
2018-01-01T07:55:58.384Z,0.50
2018-01-01T07:58:32.101Z,0.60
2018-01-01T08:01:06.082Z,0.50
2018-01-01T08:03:40.374Z,0.80
2018-01-01T08:06:14.373Z,0.93
2018-01-01T08:08:48.413Z,0.75
2018-01-01T08:11:22.352Z,0.62
2018-01-01T08:13:56.213Z,0.98
2018-01-01T08:16:30.326Z,1.05
2018-01-01T08:19:05.054Z,0.55
2018-01-01T08:21:41.202Z,1.02
2018-01-01T08:24:16.926Z,1.12
2018-01-01T08:26:50.764Z,1.80
2018-01-01T08:29:24.914Z,1.15
2018-01-01T08:31:58.780Z,1.23
2018-01-01T08:34:32.760Z,1.10
2018-01-01T08:37:06.497Z,0.60
2018-01-01T08:39:40.216Z,0.90
2018-01-01T08:42:14.068Z,1.08
2018-01-01T08:44:47.872Z,1.45
2018-01-01T08:47:21.715Z,1.48
2018-01-01T08:49:56.287Z,0.68
2018-01-01T08:52:30.928Z,0.88
2018-01-01T08:55:05.392Z,1.33
2018-01-01T08:57:40.118Z,1.20
2018-01-01T09:00:13.886Z,1.05
2018-01-01T09:02:47.630Z,0.95
2018-01-01T09:05:23.559Z,0.50
2018-01-01T09:07:58.624Z,0.50
2018-01-01T09:10:32.939Z,0.60
2018-01-01T09:13:06.716Z,0.60
2018-01-01T09:15:40.465Z,0.40
2018-01-01T09:20:57.513Z,0.40
2018-01-01T09:23:32.102Z,0.50
2018-01-01T09:26:05.817Z,0.60
2018-01-01T09:28:40.280Z,0.40
2018-01-01T09:31:17.574Z,0.60
2018-01-01T09:33:51.339Z,0.68
2018-01-01T09:36:25.193Z,1.10
2018-01-01T09:38:58.890Z,0.62
2018-01-01T09:41:32.709Z,1.17
2018-01-01T09:44:13.478Z,1.30
2018-01-01T09:46:47.801Z,0.75
2018-01-01T09:49:24.222Z,0.50
2018-01-01T09:52:00.383Z,1.02
2018-01-01T09:54:36.073Z,0.40
2018-01-01T09:57:10.817Z,0.60
2018-01-01T09:59:44.622Z,1.58
2018-01-01T10:02:24.782Z,0.95
2018-01-01T10:04:59.010Z,0.30
2018-01-01T10:07:32.628Z,0.30
2018-01-01T10:10:07.409Z,0.60
2018-01-01T10:12:43.056Z,1.25
2018-01-01T10:15:18.061Z,0.52
2018-01-01T10:17:52.585Z,0.82
2018-01-01T10:20:28.136Z,1.95
2018-01-01T10:23:01.850Z,1.45
2018-01-01T10:25:37.954Z,0.40
2018-01-01T10:28:12.972Z,0.55
2018-01-01T10:30:46.808Z,1.62
2018-01-01T10:33:22.632Z,1.02
2018-01-01T10:35:58.823Z,0.40
2018-01-01T10:38:40.845Z,1.77
2018-01-01T10:41:18.459Z,3.25
2018-01-01T10:43:52.000Z,1.15
2018-01-01T10:46:25.830Z,1.05
2018-01-01T10:48:59.941Z,0.93
2018-01-01T10:51:33.974Z,0.40
2018-01-01T10:54:12.197Z,0.55
2018-01-01T10:56:48.728Z,1.33
2018-01-01T11:20:11.572Z,0.93
2018-01-01T11:22:45.408Z,3.22
2018-01-01T11:25:21.715Z,1.02
2018-01-01T11:27:55.520Z,0.95
2018-01-01T11:30:31.251Z,1.40
2018-01-01T11:33:07.595Z,0.77
2018-01-01T11:35:41.653Z,1.25
2018-01-01T11:38:18.002Z,0.60
2018-01-01T11:41:01.909Z,0.90
2018-01-01T11:43:35.788Z,1.20
2018-01-01T11:46:09.720Z,0.60
2018-01-01T11:49:00.210Z,0.40
2018-01-01T11:51:38.863Z,0.50
2018-01-01T11:57:17.779Z,0.40
2018-01-01T11:59:53.131Z,0.40
2018-01-01T12:02:29.197Z,0.82
2018-01-01T12:05:10.155Z,1.27
2018-01-01T12:07:46.556Z,0.40
2018-01-01T12:10:22.016Z,1.30
2018-01-01T12:15:39.048Z,0.30
2018-01-01T12:18:21.757Z,2.53
2018-01-01T12:20:57.216Z,0.50
2018-01-01T12:26:11.704Z,0.55
2018-01-01T12:31:38.518Z,0.47
2018-01-01T12:34:13.780Z,0.47
2018-01-01T12:36:48.460Z,0.50
2018-01-01T12:39:23.398Z,0.50
2018-01-01T12:47:45.930Z,0.50
2018-01-01T12:50:21.835Z,0.50
2018-01-01T12:55:48.190Z,0.70
2018-01-01T12:58:27.321Z,1.60
2018-01-01T13:12:57.573Z,1.05
2018-01-01T13:15:31.936Z,1.25
2018-01-01T13:18:08.456Z,0.77
2018-01-01T13:20:43.144Z,2.08
2018-01-01T13:23:17.406Z,0.70
2018-01-01T13:25:52.123Z,0.40
2018-01-01T13:28:26.978Z,0.93
2018-01-01T13:31:01.805Z,0.68
2018-01-01T13:33:37.496Z,0.35
2018-01-01T13:39:00.920Z,0.60
2018-01-01T13:41:34.821Z,0.70
2018-01-01T13:44:12.581Z,1.02
2018-01-01T13:46:49.097Z,0.55
2018-01-01T13:49:23.038Z,0.60
2018-01-01T13:51:59.657Z,0.90
2018-01-01T13:54:40.580Z,0.30
2018-01-01T13:57:24.703Z,1.62
2018-01-01T13:59:58.699Z,1.10
2018-01-01T14:05:33.385Z,0.45
2018-01-01T14:08:07.139Z,1.02
2018-01-01T14:10:41.659Z,0.47
2018-01-01T14:13:16.072Z,0.40
2018-01-01T14:15:49.772Z,0.37
2018-01-01T14:18:23.489Z,0.35
2018-01-01T14:20:57.420Z,3.67
2018-01-01T14:23:31.389Z,2.42
2018-01-01T14:26:05.261Z,0.43
2018-01-01T14:28:38.950Z,0.90
2018-01-01T14:31:12.904Z,1.37
2018-01-01T14:33:46.680Z,0.50
2018-01-01T14:36:20.315Z,2.30
2018-01-01T14:38:54.061Z,1.52
2018-01-01T14:41:27.805Z,0.50
2018-01-01T14:44:01.601Z,1.60
2018-01-01T14:46:35.317Z,0.98
2018-01-01T14:49:09.223Z,0.40
2018-01-01T14:51:42.964Z,0.50
2018-01-01T14:54:16.580Z,0.40
2018-01-01T14:56:51.008Z,0.98
2018-01-01T14:59:24.756Z,1.27
2018-01-01T15:01:58.768Z,0.30
2018-01-01T15:04:32.332Z,0.88
2018-01-01T15:07:06.172Z,0.30
2018-01-01T15:09:47.108Z,0.50
2018-01-01T15:12:23.178Z,0.40
2018-01-01T15:15:05.480Z,0.40
2018-01-01T15:17:42.368Z,0.30
2018-01-01T15:20:16.161Z,0.98
2018-01-01T15:22:49.761Z,0.70
2018-01-01T15:25:23.568Z,0.40
2018-01-01T15:27:57.186Z,0.40
2018-01-01T15:33:17.757Z,0.32
2018-01-01T15:39:00.045Z,0.55
2018-01-01T15:41:33.787Z,0.50
2018-01-01T15:44:09.087Z,0.40
2018-01-01T15:46:42.894Z,0.30
2018-01-01T15:49:16.616Z,0.30
2018-01-01T15:51:51.282Z,0.40
2018-01-01T15:54:25.803Z,0.50
2018-01-01T16:08:59.077Z,1.27
2018-01-01T16:11:33.264Z,0.40
2018-01-01T16:14:08.184Z,0.85
2018-01-01T16:16:42.859Z,0.60
2018-01-01T16:19:16.869Z,0.40
2018-01-01T16:21:52.964Z,0.57
2018-01-01T16:24:27.538Z,0.90
2018-01-01T16:27:03.330Z,0.30
2018-01-01T16:29:37.230Z,0.30
2018-01-01T16:32:13.015Z,0.40
2018-01-01T16:34:47.757Z,0.40
2018-01-01T16:37:21.718Z,0.40
2018-01-01T16:39:56.227Z,0.40
2018-01-01T16:42:30.492Z,0.37
2018-01-01T16:45:05.608Z,0.40
2018-01-01T16:47:39.390Z,0.40
2018-01-01T16:50:13.152Z,0.65
2018-01-01T16:52:47.774Z,0.35
2018-01-01T16:55:22.118Z,0.40
2018-01-01T16:57:57.421Z,0.40
2018-01-01T17:00:31.191Z,0.40
2018-01-01T17:03:05.858Z,0.40
2018-01-01T17:05:50.279Z,0.40
2018-01-01T17:08:24.908Z,0.37
2018-01-01T17:10:59.577Z,1.50
2018-01-01T17:13:34.144Z,0.40
2018-01-01T17:16:09.270Z,0.37
2018-01-01T17:18:43.668Z,0.30
2018-01-01T17:21:17.355Z,0.35
2018-01-01T17:23:51.897Z,0.40
2018-01-01T17:26:26.499Z,0.40
2018-01-01T17:29:02.666Z,0.40
2018-01-01T17:31:37.905Z,0.40
2018-01-01T17:34:11.648Z,0.40
2018-01-01T17:36:45.496Z,0.40
2018-01-01T17:39:19.874Z,0.73
2018-01-01T17:41:55.502Z,0.40
2018-01-01T17:44:30.590Z,0.37
2018-01-01T17:47:04.896Z,0.40
2018-01-01T17:55:03.563Z,0.40
2018-01-01T17:57:41.457Z,0.30
2018-01-01T18:00:15.823Z,0.60
2018-01-01T18:02:56.884Z,0.30
2018-01-01T18:05:31.103Z,0.73
2018-01-01T18:11:32.396Z,1.00
2018-01-01T18:14:18.656Z,0.40
2018-01-01T18:20:00.859Z,1.20
2018-01-01T18:22:34.570Z,0.40
2018-01-01T18:25:09.469Z,0.40
2018-01-01T18:27:43.372Z,0.40
2018-01-01T18:30:17.066Z,0.30
2018-01-01T18:32:50.868Z,0.40
2018-01-01T18:35:24.650Z,0.40
2018-01-01T18:37:58.242Z,0.40
2018-01-01T18:40:33.126Z,0.30
2018-01-01T18:43:07.242Z,0.30
2018-01-01T18:45:40.896Z,0.40
2018-01-01T18:48:14.706Z,0.30
2018-01-01T18:50:49.237Z,0.30
2018-01-01T18:53:23.128Z,0.40
2018-01-01T18:55:56.788Z,0.40
2018-01-01T19:01:13.129Z,0.40
2018-01-01T19:03:49.085Z,0.30
2018-01-01T19:18:08.814Z,0.37
2018-01-01T19:20:42.669Z,0.40
2018-01-01T19:23:27.692Z,0.40
2018-01-01T19:26:02.152Z,0.40
2018-01-01T19:28:39.396Z,0.93
2018-01-01T19:34:26.800Z,0.32
2018-01-01T19:37:01.193Z,0.62
2018-01-01T19:39:38.633Z,0.40
2018-01-01T19:42:13.711Z,0.40
2018-01-01T19:50:14.035Z,0.50
2018-01-01T19:53:06.926Z,2.35
2018-01-01T19:58:48.165Z,0.40
2018-01-01T20:01:25.606Z,0.60
2018-01-01T20:06:40.437Z,0.70
2018-01-01T20:09:16.380Z,0.30
2018-01-01T20:14:59.128Z,0.60
2018-01-01T20:25:45.308Z,0.40
2018-01-01T20:28:20.352Z,0.40
2018-01-01T20:30:56.633Z,0.30
2018-01-01T20:36:27.382Z,0.70
2018-01-01T20:39:02.466Z,1.15
2018-01-01T20:49:50.860Z,0.30
2018-01-01T20:52:26.777Z,0.40
2018-01-01T20:55:00.757Z,0.40
2018-01-01T20:57:38.806Z,0.30
2018-01-01T21:00:25.750Z,0.40
2018-01-01T21:05:50.261Z,0.40
2018-01-01T21:08:24.056Z,0.40
2018-01-01T21:10:57.715Z,0.40
2018-01-01T21:13:32.996Z,0.30
2018-01-01T21:16:06.602Z,0.30
2018-01-01T21:18:44.318Z,0.40
2018-01-01T21:21:26.150Z,0.30
2018-01-01T21:24:01.747Z,0.40
2018-01-01T21:26:36.248Z,0.40
2018-01-01T21:32:08.447Z,0.40
2018-01-01T21:34:42.528Z,0.40
2018-01-01T21:37:19.259Z,0.30
2018-01-01T21:39:54.744Z,0.30
2018-01-01T21:42:29.589Z,0.30
2018-01-01T21:45:05.141Z,0.40
2018-01-01T21:47:40.335Z,0.30
2018-01-01T21:50:16.094Z,0.30
2018-01-01T21:52:54.644Z,0.30
2018-01-01T21:55:28.680Z,0.40
2018-01-01T21:58:03.532Z,0.37
2018-01-01T22:00:38.151Z,0.35
2018-01-01T22:03:11.975Z,0.30
2018-01-01T22:05:45.704Z,0.30
2018-01-01T22:08:26.317Z,0.30
2018-01-01T22:11:05.410Z,0.40
2018-01-01T22:16:31.562Z,0.40
2018-01-01T22:19:05.264Z,0.30
2018-01-01T22:21:59.808Z,0.30
2018-01-01T22:30:43.592Z,0.37
2018-01-01T22:33:17.241Z,0.30
2018-01-01T22:35:51.900Z,0.40
2018-01-01T22:38:25.573Z,0.32
2018-01-01T22:41:00.039Z,0.40
2018-01-01T22:43:34.560Z,0.30
2018-01-01T22:46:10.498Z,0.35
2018-01-01T22:48:45.136Z,0.30
2018-01-01T22:51:19.009Z,0.40
2018-01-01T22:53:53.667Z,0.30
2018-01-01T22:56:28.694Z,0.30
2018-01-01T22:59:06.726Z,3.03
2018-01-01T23:01:42.626Z,0.30
2018-01-01T23:04:17.186Z,0.40
2018-01-01T23:06:51.011Z,0.40
2018-01-01T23:09:26.341Z,0.40
2018-01-01T23:12:00.203Z,0.30
2018-01-01T23:14:35.357Z,0.30
2018-01-01T23:17:10.066Z,0.35
2018-01-01T23:19:44.580Z,0.30
2018-01-01T23:22:21.624Z,0.40
2018-01-01T23:24:56.045Z,0.40
2018-01-01T23:27:29.744Z,0.40
2018-01-01T23:30:05.520Z,0.40
2018-01-01T23:32:40.311Z,0.32
2018-01-01T23:35:15.176Z,0.30
2018-01-01T23:37:50.459Z,0.30
2018-01-01T23:40:24.055Z,0.32
2018-01-01T23:42:57.821Z,0.35
2018-01-01T23:45:33.039Z,0.30
2018-01-01T23:48:07.519Z,0.30
2018-01-01T23:50:41.445Z,1.00
2018-01-01T23:53:16.125Z,0.30
2018-01-01T23:55:51.452Z,0.40
2018-01-01T23:58:27.422Z,0.30
